createdAt,value
2023-09-03T00:03:12.655Z,5.00
2023-09-03T00:13:37.753Z,4.50
2023-09-03T00:24:01.974Z,4.40
2023-09-03T00:34:26.277Z,4.60
2023-09-03T00:44:51.085Z,4.40
2023-09-03T00:55:15.592Z,4.10
2023-09-03T01:05:39.376Z,4.20
2023-09-03T01:16:10.205Z,3.80
2023-09-03T01:26:53.511Z,4.10
2023-09-03T01:37:17.595Z,4.40
2023-09-03T01:48:08.934Z,5.90
2023-09-03T01:58:37.416Z,5.80
2023-09-03T02:09:01.116Z,4.30
2023-09-03T02:19:26.164Z,4.50
2023-09-03T02:29:50.295Z,3.50
2023-09-03T02:40:14.599Z,3.90
2023-09-03T02:50:40.882Z,4.20
2023-09-03T03:01:16.185Z,3.90
2023-09-03T03:11:40.609Z,4.20
2023-09-03T03:22:05.346Z,5.60
2023-09-03T03:32:29.798Z,5.20
2023-09-03T03:42:54.731Z,4.60
2023-09-03T03:53:19.082Z,4.20
2023-09-03T04:03:44.891Z,4.30
2023-09-03T04:14:08.631Z,4.00
2023-09-03T04:24:33.772Z,4.30
2023-09-03T04:34:58.127Z,3.70
2023-09-03T04:45:24.482Z,4.20
2023-09-03T04:55:48.900Z,5.00
2023-09-03T05:06:17.254Z,5.20
2023-09-03T05:16:42.709Z,5.20
2023-09-03T05:27:08.090Z,5.80
2023-09-03T05:37:32.713Z,4.90
2023-09-03T05:47:56.739Z,5.10
2023-09-03T05:58:21.522Z,5.40
2023-09-03T06:08:46.741Z,5.70
2023-09-03T06:19:10.745Z,5.50
2023-09-03T06:29:40.263Z,6.00
2023-09-03T06:40:05.240Z,6.30
2023-09-03T06:50:29.600Z,6.40
2023-09-03T07:00:56.142Z,5.80
2023-09-03T07:11:21.710Z,6.00
2023-09-03T07:21:46.233Z,6.30
2023-09-03T07:32:10.801Z,5.70
2023-09-03T07:42:35.152Z,5.90
2023-09-03T07:53:02.312Z,6.40
2023-09-03T08:03:34.123Z,6.20
2023-09-03T08:14:00.383Z,5.80
2023-09-03T08:24:24.429Z,4.90
2023-09-03T08:34:48.616Z,5.60
2023-09-03T08:45:13.926Z,4.70
2023-09-03T08:55:38.380Z,3.00
2023-09-03T09:06:06.971Z,3.00
2023-09-03T09:16:31.701Z,3.10
2023-09-03T09:26:56.030Z,3.30
2023-09-03T09:37:21.365Z,3.70
2023-09-03T09:47:47.610Z,3.60
2023-09-03T09:58:13.894Z,3.00
2023-09-03T10:08:39.451Z,3.40
2023-09-03T10:19:11.758Z,2.60
2023-09-03T10:29:37.483Z,2.00
2023-09-03T10:40:18.313Z,2.70
2023-09-03T10:50:49.805Z,2.20
2023-09-03T11:01:31.712Z,2.10
2023-09-03T11:12:03.254Z,2.60
2023-09-03T11:22:28.861Z,2.30
2023-09-03T11:32:53.287Z,1.80
2023-09-03T11:43:17.775Z,2.00
2023-09-03T11:53:43.618Z,2.20
2023-09-03T12:04:07.970Z,2.60
2023-09-03T12:14:33.074Z,2.20
2023-09-03T12:25:05.732Z,2.20
2023-09-03T12:35:30.102Z,2.40
2023-09-03T12:45:54.453Z,2.70
2023-09-03T12:56:18.938Z,2.40
2023-09-03T13:06:43.198Z,3.30
2023-09-03T13:17:07.937Z,2.40
2023-09-03T13:27:32.418Z,3.10
2023-09-03T13:37:56.798Z,2.20
2023-09-03T13:48:22.608Z,2.40
2023-09-03T13:58:47.152Z,2.10
2023-09-03T14:09:13.214Z,2.30
2023-09-03T14:19:37.381Z,3.00
2023-09-03T14:30:01.712Z,3.70
2023-09-03T14:40:25.694Z,4.00
2023-09-03T14:50:50.364Z,2.30
2023-09-03T15:01:21.580Z,2.40
2023-09-03T15:11:47.407Z,1.40
2023-09-03T15:22:12.101Z,1.70
2023-09-03T15:32:36.340Z,1.70
2023-09-03T15:43:00.640Z,1.70
2023-09-03T15:53:26.964Z,1.20
2023-09-03T16:03:51.420Z,1.60
2023-09-03T16:14:15.624Z,1.60
2023-09-03T16:24:43.170Z,1.30
2023-09-03T16:35:09.279Z,0.90
2023-09-03T16:45:33.277Z,1.60
2023-09-03T16:55:58.810Z,1.00
2023-09-03T17:06:23.461Z,1.40
2023-09-03T17:16:47.892Z,1.80
2023-09-03T17:27:12.970Z,1.50
2023-09-03T17:37:38.614Z,1.60
2023-09-03T17:48:03.270Z,1.50
2023-09-03T17:58:31.853Z,1.70
2023-09-03T18:08:56.346Z,1.60
2023-09-03T18:19:20.278Z,1.70
2023-09-03T18:29:49.837Z,2.30
2023-09-03T18:40:14.437Z,2.10
2023-09-03T18:50:38.398Z,2.00
2023-09-03T19:01:06.533Z,2.20
2023-09-03T19:11:36.540Z,2.30
2023-09-03T19:22:01.142Z,1.90
2023-09-03T19:32:25.187Z,1.80
2023-09-03T19:42:53.526Z,2.20
2023-09-03T19:53:18.230Z,1.60
2023-09-03T20:03:42.710Z,2.00
2023-09-03T20:14:07.153Z,1.80
2023-09-03T20:24:31.583Z,1.50
2023-09-03T20:34:56.330Z,2.10
2023-09-03T20:45:23.972Z,2.20
2023-09-03T20:55:53.137Z,2.50
2023-09-03T21:06:17.266Z,2.70
2023-09-03T21:16:41.731Z,2.30
2023-09-03T21:27:06.013Z,2.10
2023-09-03T21:37:30.715Z,2.10
2023-09-03T21:47:54.973Z,1.80
2023-09-03T22:08:43.110Z,1.90
2023-09-03T22:19:24.023Z,2.00
2023-09-03T22:29:49.986Z,2.30
2023-09-03T22:40:15.096Z,2.20
2023-09-03T22:50:39.171Z,2.30
2023-09-03T23:01:03.984Z,2.20
2023-09-03T23:11:28.665Z,2.40
2023-09-03T23:21:53.167Z,2.40
2023-09-03T23:32:16.787Z,3.40
2023-09-03T23:42:41.665Z,2.10
2023-09-03T23:53:06.111Z,2.50
